Hauptseite
METAR-TAF:

METAR-TAF

Flughäfen :

Flughafen Alexandros Papadiamantis

Skiathos, Griechenland

Breite: 39-11N, Länge: 023-30E, Höhe: 15 m

Beobachtung

Neuester Wetterbericht von vor 7 Stunden und 33 Minuten, um 17:50 UTC
Wind 12 kt aus West/Südwest
Temperatur 25°C
Luftfeuchtigkeit 69%
Luftdruck 999 hPa
Sichtweite 10 km oder mehr
Leicht bewölkt in der Höhe von 2000 ft

METAR: LGSK 261750Z 24012KT 9999 FEW020 25/19 Q0999

Zeit: 04:23 (01:23 UTC)

Prognose

Neuester Wetterbericht von vor 2 Stunden und 23 Minuten, um 23:00 UTC
Gültige Prognose vom 27 um 00 UTC bis 27 um 09 UTC
Wind 15 kt aus West
Sichtweite 10 km oder mehr
Leicht bewölkt in der Höhe von 1000 ft
Aufgelockert bewölkt in der Höhe von 3000 ft

TAF: LGSK 262300Z 2700/2709 27015KT 9999 FEW010 SCT030

Wetterbeobachtungen und Prognosen von mehr als 4000 Flughäfen (METAR und TAF Bericht).

Die verfügbaren Stationen werden durch gelbe und rote Markierungen auf der Karte dargestellt.

Führen Sie die Maus auf sie, um den Namen der Station zu sehen.

Darauf klicken, um die Beobachtung von Wetterbeobachtungen und Prognosen zu sehen.

Um die Karte zu ändern : klicken Sie auf den grünen Tasten mit einem schwarzen Kreuz Zum Vergrößern, auf den grünen Button mit einem Gedankenstrich zu verkleinern, oder auf die grünen Pfeile für benachbarte Karten.


METAR-TAF: